createdAt,value
2019-05-12T00:00:48.438Z,15.20
2019-05-12T00:03:12.113Z,16.20
2019-05-12T00:05:35.581Z,15.73
2019-05-12T00:07:59.329Z,17.83
2019-05-12T00:10:22.786Z,16.50
2019-05-12T00:12:48.344Z,14.23
2019-05-12T00:15:12.069Z,15.10
2019-05-12T00:17:35.500Z,13.50
2019-05-12T00:19:58.955Z,13.87
2019-05-12T00:22:24.429Z,14.68
2019-05-12T00:24:48.002Z,14.23
2019-05-12T00:27:13.035Z,15.63
2019-05-12T00:29:37.822Z,15.80
2019-05-12T00:32:01.306Z,15.43
2019-05-12T00:34:24.834Z,15.23
2019-05-12T00:36:48.646Z,14.60
2019-05-12T00:39:12.538Z,14.10
2019-05-12T00:41:38.663Z,14.03
2019-05-12T00:44:01.247Z,13.33
2019-05-12T00:46:24.677Z,13.30
2019-05-12T00:48:48.334Z,14.40
2019-05-12T00:51:11.747Z,14.53
2019-05-12T00:53:40.077Z,13.47
2019-05-12T00:56:00.680Z,15.50
2019-05-12T00:58:24.143Z,14.63
2019-05-12T01:00:48.252Z,13.60
2019-05-12T01:03:11.792Z,13.13
2019-05-12T01:05:35.226Z,13.73
2019-05-12T01:07:59.010Z,14.20
2019-05-12T01:10:22.482Z,14.53
2019-05-12T01:12:45.904Z,13.93
2019-05-12T01:15:10.008Z,15.20
2019-05-12T01:17:33.436Z,14.77
2019-05-12T01:19:58.429Z,14.63
2019-05-12T01:22:21.991Z,15.93
2019-05-12T01:24:45.450Z,15.00
2019-05-12T01:27:08.874Z,13.83
2019-05-12T01:29:32.340Z,13.10
2019-05-12T01:31:58.582Z,11.00
2019-05-12T01:34:22.036Z,11.97
2019-05-12T01:36:45.483Z,12.40
2019-05-12T01:39:08.910Z,12.77
2019-05-12T01:41:32.393Z,11.50
2019-05-12T01:43:58.296Z,11.23
2019-05-12T01:46:21.019Z,12.77
2019-05-12T01:48:44.448Z,10.93
2019-05-12T01:51:08.392Z,11.10
2019-05-12T01:53:32.179Z,11.20
2019-05-12T01:55:55.641Z,11.47
2019-05-12T01:58:19.608Z,11.97
2019-05-12T02:00:43.218Z,11.23
2019-05-12T02:03:08.905Z,11.50
2019-05-12T02:05:31.791Z,11.47
2019-05-12T02:07:58.376Z,12.60
2019-05-12T02:10:23.156Z,12.50
2019-05-12T02:12:48.865Z,11.93
2019-05-12T02:15:12.558Z,11.80
2019-05-12T02:17:35.986Z,11.93
2019-05-12T02:19:59.447Z,11.17
2019-05-12T02:22:22.864Z,10.70
2019-05-12T02:24:47.873Z,11.40
2019-05-12T02:27:11.815Z,10.57
2019-05-12T02:29:35.272Z,10.07
2019-05-12T02:31:59.170Z,11.93
2019-05-12T02:34:25.368Z,9.87
2019-05-12T02:36:47.858Z,9.50
2019-05-12T02:39:14.740Z,11.80
2019-05-12T02:41:36.616Z,18.00
2019-05-12T02:44:00.050Z,8.90
2019-05-12T02:46:25.490Z,9.80
2019-05-12T02:48:48.664Z,10.50
2019-05-12T02:51:15.613Z,9.90
2019-05-12T02:53:38.172Z,10.43
2019-05-12T02:56:04.999Z,9.53
2019-05-12T02:58:29.647Z,8.60
2019-05-12T03:00:55.153Z,7.87
2019-05-12T03:03:24.895Z,9.67
2019-05-12T03:05:48.246Z,9.77
2019-05-12T03:08:15.372Z,8.93
2019-05-12T03:10:39.016Z,8.80
2019-05-12T03:13:04.400Z,11.00
2019-05-12T03:15:27.623Z,11.27
2019-05-12T03:17:51.079Z,8.60
2019-05-12T03:20:15.633Z,9.07
2019-05-12T03:22:39.194Z,9.23
2019-05-12T03:25:11.405Z,9.50
2019-05-12T03:27:27.804Z,9.13
2019-05-12T03:29:51.254Z,9.50
2019-05-12T03:32:17.709Z,9.77
2019-05-12T03:34:39.870Z,9.77
2019-05-12T03:37:07.729Z,9.07
2019-05-12T03:39:28.470Z,8.80
2019-05-12T03:41:54.539Z,9.70
2019-05-12T03:44:17.082Z,8.93
2019-05-12T03:46:40.498Z,8.97
2019-05-12T03:49:05.350Z,8.93
2019-05-12T03:51:29.436Z,8.50
2019-05-12T03:53:55.604Z,8.83
2019-05-12T03:56:18.422Z,9.63
2019-05-12T03:58:45.019Z,8.27
2019-05-12T04:01:07.019Z,8.23
2019-05-12T04:03:30.487Z,8.03
2019-05-12T04:05:55.380Z,7.73
2019-05-12T04:08:19.127Z,8.30
2019-05-12T04:10:45.146Z,7.13
2019-05-12T04:13:07.732Z,8.13
2019-05-12T04:15:34.312Z,7.63
2019-05-12T04:17:56.311Z,7.47
2019-05-12T04:20:19.784Z,8.53
2019-05-12T04:22:44.716Z,8.43
2019-05-12T04:25:08.412Z,7.73
2019-05-12T04:27:34.633Z,7.50
2019-05-12T04:29:57.030Z,7.37
2019-05-12T04:32:20.461Z,7.30
2019-05-12T04:34:44.764Z,7.33
2019-05-12T04:37:08.244Z,6.53
2019-05-12T04:39:34.091Z,8.30
2019-05-12T04:41:56.860Z,6.17
2019-05-12T04:44:20.282Z,6.67
2019-05-12T04:46:45.033Z,6.87
2019-05-12T04:49:08.780Z,7.77
2019-05-12T04:51:34.980Z,8.30
2019-05-12T04:53:57.389Z,8.00
2019-05-12T04:56:20.955Z,7.93
2019-05-12T04:58:45.179Z,7.30
2019-05-12T05:01:08.888Z,8.40
2019-05-12T05:03:34.931Z,8.17
2019-05-12T05:05:57.491Z,8.03
2019-05-12T05:08:24.145Z,9.63
2019-05-12T05:10:46.177Z,8.50
2019-05-12T05:13:09.659Z,8.13
2019-05-12T05:15:34.676Z,7.63
2019-05-12T05:17:58.284Z,9.50
2019-05-12T05:20:23.816Z,8.73
2019-05-12T05:22:46.930Z,8.63
2019-05-12T05:25:10.354Z,9.47
2019-05-12T05:27:34.182Z,8.43
2019-05-12T05:29:57.874Z,8.87
2019-05-12T05:32:23.275Z,8.97
2019-05-12T05:34:55.860Z,8.77
2019-05-12T05:37:14.364Z,10.73
2019-05-12T05:39:47.960Z,12.27
2019-05-12T05:42:04.599Z,7.53
2019-05-12T05:44:29.166Z,8.43
2019-05-12T05:46:54.629Z,6.83
2019-05-12T05:49:18.050Z,7.07
2019-05-12T05:51:46.703Z,7.20
2019-05-12T05:54:06.618Z,6.80
2019-05-12T05:56:39.856Z,6.73
2019-05-12T05:58:55.231Z,6.43
2019-05-12T06:01:18.677Z,7.00
2019-05-12T06:03:44.186Z,6.47
2019-05-12T06:06:12.204Z,6.23
2019-05-12T06:08:33.765Z,6.73
2019-05-12T06:10:57.317Z,6.30
2019-05-12T06:13:21.286Z,6.73
2019-05-12T06:15:46.305Z,6.17
2019-05-12T06:18:09.778Z,5.20
2019-05-12T06:20:37.692Z,5.50
2019-05-12T06:22:58.334Z,5.33
2019-05-12T06:25:26.138Z,4.97
2019-05-12T06:27:51.194Z,5.20
2019-05-12T06:30:14.727Z,5.55
2019-05-12T06:32:41.299Z,4.77
2019-05-12T06:35:04.732Z,4.40
2019-05-12T06:37:28.214Z,5.50
2019-05-12T06:39:56.474Z,4.90
2019-05-12T06:42:17.251Z,5.07
2019-05-12T06:44:40.578Z,4.60
2019-05-12T06:47:08.007Z,4.53
2019-05-12T06:49:29.198Z,4.30
2019-05-12T06:52:00.738Z,4.30
2019-05-12T06:54:18.070Z,4.67
2019-05-12T06:56:43.516Z,4.27
2019-05-12T06:59:10.355Z,4.47
2019-05-12T07:01:33.460Z,3.97
2019-05-12T07:04:00.650Z,4.07
2019-05-12T07:06:24.536Z,3.93
2019-05-12T07:09:01.274Z,4.00
2019-05-12T07:11:14.295Z,4.03
2019-05-12T07:13:37.692Z,3.60
2019-05-12T07:16:03.705Z,3.20
2019-05-12T07:18:32.845Z,3.50
2019-05-12T07:20:53.756Z,3.98
2019-05-12T07:23:19.707Z,2.90
2019-05-12T07:25:44.560Z,2.62
2019-05-12T07:28:08.357Z,2.70
2019-05-12T07:30:35.025Z,3.20
2019-05-12T07:33:01.175Z,2.90
2019-05-12T07:35:24.091Z,2.67
2019-05-12T07:37:48.017Z,2.40
2019-05-12T07:40:13.764Z,3.20
2019-05-12T07:42:39.491Z,2.40
2019-05-12T07:45:04.732Z,2.33
2019-05-12T07:47:29.402Z,2.20
2019-05-12T07:49:53.749Z,2.10
2019-05-12T07:52:17.362Z,1.90
2019-05-12T07:54:40.781Z,2.47
2019-05-12T07:57:11.979Z,2.10
2019-05-12T07:59:38.974Z,2.07
2019-05-12T08:01:55.116Z,1.97
2019-05-12T08:04:18.538Z,1.73
2019-05-12T08:06:46.657Z,1.90
2019-05-12T08:09:08.067Z,1.97
2019-05-12T08:11:34.672Z,1.77
2019-05-12T08:13:56.662Z,2.17
2019-05-12T08:16:25.734Z,1.83
2019-05-12T08:18:45.262Z,2.07
2019-05-12T08:21:08.727Z,2.00
2019-05-12T08:23:33.890Z,2.00
2019-05-12T08:25:57.811Z,1.67
2019-05-12T08:28:27.904Z,1.87
2019-05-12T08:30:52.048Z,1.90
2019-05-12T08:33:11.594Z,1.53
2019-05-12T08:35:38.119Z,1.60
2019-05-12T08:38:00.557Z,4.60
2019-05-12T08:40:24.809Z,3.20
2019-05-12T08:42:48.346Z,1.70
2019-05-12T08:45:17.003Z,1.80
2019-05-12T08:47:38.868Z,2.07
2019-05-12T08:50:04.844Z,1.80
2019-05-12T08:52:30.622Z,1.70
2019-05-12T08:54:53.662Z,1.83
2019-05-12T08:57:17.279Z,1.80
2019-05-12T08:59:41.040Z,1.40
2019-05-12T09:02:07.362Z,1.50
2019-05-12T09:04:29.727Z,2.13
2019-05-12T09:06:56.715Z,1.47
2019-05-12T09:09:19.252Z,1.87
2019-05-12T09:11:44.028Z,1.60
2019-05-12T09:14:07.610Z,1.60
2019-05-12T09:16:33.171Z,1.93
2019-05-12T09:18:56.462Z,1.40
2019-05-12T09:21:23.677Z,1.47
2019-05-12T09:23:45.741Z,1.43
2019-05-12T09:26:09.167Z,1.37
2019-05-12T09:28:44.366Z,1.20
2019-05-12T09:30:57.862Z,1.30
2019-05-12T09:33:26.814Z,1.50
2019-05-12T09:35:46.462Z,1.30
2019-05-12T09:38:11.500Z,1.50
2019-05-12T09:40:35.900Z,1.33
2019-05-12T09:43:00.287Z,1.23
2019-05-12T09:45:24.563Z,1.93
2019-05-12T09:47:48.268Z,1.40
2019-05-12T09:50:18.234Z,1.67
2019-05-12T09:52:37.285Z,2.47
2019-05-12T09:55:01.005Z,1.60
2019-05-12T09:57:24.797Z,2.07
2019-05-12T09:59:55.441Z,1.40
2019-05-12T10:02:18.549Z,1.47
2019-05-12T10:04:38.599Z,1.80
2019-05-12T10:07:03.791Z,1.60
2019-05-12T10:09:27.250Z,1.67
2019-05-12T10:11:51.826Z,1.70
2019-05-12T10:14:15.856Z,1.70
2019-05-12T10:16:51.702Z,1.43
2019-05-12T10:19:15.796Z,1.13
2019-05-12T10:21:39.211Z,1.83
2019-05-12T10:24:04.941Z,1.80
2019-05-12T10:26:27.854Z,1.30
2019-05-12T10:28:53.666Z,1.27
2019-05-12T10:31:18.642Z,1.70
2019-05-12T10:33:43.318Z,1.50
2019-05-12T10:36:08.533Z,1.20
2019-05-12T10:38:34.399Z,1.83
2019-05-12T10:40:57.889Z,1.43
2019-05-12T10:43:23.523Z,1.30
2019-05-12T10:45:46.513Z,1.47
2019-05-12T10:48:09.957Z,1.60
2019-05-12T10:50:34.231Z,1.10
2019-05-12T10:52:57.785Z,1.27
2019-05-12T10:55:21.210Z,1.40
2019-05-12T10:57:47.234Z,1.60
2019-05-12T11:00:14.282Z,1.17
2019-05-12T11:02:38.084Z,1.33
2019-05-12T11:05:01.623Z,1.30
2019-05-12T11:07:27.973Z,1.90
2019-05-12T11:09:54.321Z,1.60
2019-05-12T11:12:19.022Z,1.13
2019-05-12T11:14:43.967Z,1.40
2019-05-12T11:17:09.531Z,1.53
2019-05-12T11:19:33.705Z,2.00
2019-05-12T11:21:57.295Z,1.20
2019-05-12T11:24:20.714Z,1.40
2019-05-12T11:26:44.418Z,1.50
2019-05-12T11:29:07.845Z,2.33
2019-05-12T11:31:33.358Z,1.10
2019-05-12T11:33:56.447Z,1.23
2019-05-12T11:36:20.172Z,1.33
2019-05-12T11:38:44.355Z,1.20
2019-05-12T11:41:09.972Z,1.10
2019-05-12T11:43:33.727Z,1.40
2019-05-12T11:45:57.346Z,1.17
2019-05-12T11:48:23.351Z,1.50
2019-05-12T11:50:49.930Z,1.20
2019-05-12T11:53:13.575Z,1.33
2019-05-12T11:55:36.315Z,1.67
2019-05-12T11:58:00.243Z,1.10
2019-05-12T12:00:26.650Z,1.65
2019-05-12T12:02:50.058Z,1.27
2019-05-12T12:05:13.925Z,1.10
2019-05-12T12:07:39.397Z,1.37
2019-05-12T12:10:03.735Z,1.12
2019-05-12T12:12:27.271Z,1.37
2019-05-12T12:14:53.669Z,1.40
2019-05-12T12:17:17.284Z,1.07
2019-05-12T12:19:44.651Z,1.20
2019-05-12T12:22:05.893Z,1.25
2019-05-12T12:24:31.381Z,1.10
2019-05-12T12:26:54.495Z,1.47
2019-05-12T12:29:17.937Z,0.93
2019-05-12T12:31:54.603Z,1.15
2019-05-12T12:34:23.795Z,1.20
2019-05-12T12:36:43.724Z,1.20
2019-05-12T12:39:07.471Z,1.02
2019-05-12T12:41:30.918Z,1.67
2019-05-12T12:43:54.367Z,1.22
2019-05-12T12:46:21.519Z,1.22
2019-05-12T12:48:44.606Z,1.50
2019-05-12T12:51:08.032Z,1.37
2019-05-12T12:53:31.454Z,1.07
2019-05-12T12:55:58.173Z,1.10
2019-05-12T12:58:21.116Z,1.32
2019-05-12T13:00:47.961Z,1.15
2019-05-12T13:03:11.121Z,1.05
2019-05-12T13:05:34.831Z,1.07
2019-05-12T13:07:58.254Z,1.12
2019-05-12T13:10:21.713Z,1.00
2019-05-12T13:12:50.395Z,1.10
2019-05-12T13:15:11.122Z,1.20
2019-05-12T13:17:40.114Z,1.35
2019-05-12T13:19:59.977Z,1.10
2019-05-12T13:22:24.511Z,1.47
2019-05-12T13:24:48.012Z,1.27
2019-05-12T13:27:13.841Z,1.17
2019-05-12T13:29:39.707Z,1.12
2019-05-12T13:32:03.322Z,1.40
2019-05-12T13:34:28.808Z,1.10
2019-05-12T13:36:54.404Z,1.30
2019-05-12T13:39:17.216Z,1.10
2019-05-12T13:41:40.685Z,1.10
2019-05-12T13:44:05.493Z,0.90
2019-05-12T13:46:29.207Z,1.10
2019-05-12T13:48:57.574Z,1.10
2019-05-12T13:51:18.077Z,1.20
2019-05-12T13:53:46.357Z,1.15
2019-05-12T13:56:06.644Z,1.10
2019-05-12T13:58:34.831Z,1.07
2019-05-12T14:01:13.566Z,1.12
2019-05-12T14:03:20.765Z,1.00
2019-05-12T14:05:50.266Z,1.00
2019-05-12T14:08:09.365Z,1.20
2019-05-12T14:10:37.021Z,1.02
2019-05-12T14:12:57.937Z,1.00
2019-05-12T14:15:21.457Z,1.07
2019-05-12T14:17:44.913Z,1.32
2019-05-12T14:20:09.446Z,1.10
2019-05-12T14:22:33.946Z,1.12
2019-05-12T14:24:57.371Z,1.10
2019-05-12T14:27:27.123Z,1.30
2019-05-12T14:29:46.213Z,1.47
2019-05-12T14:32:12.287Z,0.93
2019-05-12T14:34:34.816Z,1.20
2019-05-12T14:37:05.418Z,1.10
2019-05-12T14:39:24.064Z,1.20
2019-05-12T14:41:53.088Z,0.90
2019-05-12T14:44:13.828Z,1.10
2019-05-12T14:46:40.165Z,1.20
2019-05-12T14:49:03.592Z,1.20
2019-05-12T14:51:27.091Z,1.20
2019-05-12T14:53:50.554Z,1.10
2019-05-12T14:56:14.156Z,0.98
2019-05-12T14:58:37.693Z,1.10
2019-05-12T15:01:01.113Z,1.17
2019-05-12T15:03:24.550Z,1.00
2019-05-12T15:05:48.892Z,1.25
2019-05-12T15:08:14.213Z,1.10
2019-05-12T15:10:37.613Z,1.00
2019-05-12T15:13:03.514Z,1.15
2019-05-12T15:15:27.062Z,1.10
2019-05-12T15:17:55.066Z,1.17
2019-05-12T15:20:15.807Z,1.07
2019-05-12T15:22:42.885Z,0.93
2019-05-12T15:25:05.904Z,1.32
2019-05-12T15:27:42.374Z,1.05
2019-05-12T15:29:56.354Z,1.17
2019-05-12T15:32:19.747Z,1.02
2019-05-12T15:34:44.179Z,1.00
2019-05-12T15:37:07.657Z,0.90
2019-05-12T15:39:33.503Z,1.10
2019-05-12T15:41:58.490Z,1.20
2019-05-12T15:44:23.132Z,0.95
2019-05-12T15:46:46.812Z,1.10
2019-05-12T15:49:10.192Z,0.90
2019-05-12T15:51:38.591Z,1.20
2019-05-12T15:54:06.454Z,1.00
2019-05-12T15:56:26.321Z,1.17
2019-05-12T15:58:49.960Z,0.95
2019-05-12T16:01:16.832Z,1.07
2019-05-12T16:03:38.873Z,1.00
2019-05-12T16:06:10.047Z,0.90
2019-05-12T16:08:27.588Z,1.00
2019-05-12T16:10:51.013Z,1.20
2019-05-12T16:13:15.836Z,1.30
2019-05-12T16:15:39.373Z,1.13
2019-05-12T16:18:05.795Z,1.13
2019-05-12T16:20:27.998Z,1.07
2019-05-12T16:22:53.239Z,1.20
2019-05-12T16:25:20.715Z,0.97
2019-05-12T16:27:44.427Z,1.23
2019-05-12T16:30:08.199Z,1.20
2019-05-12T16:32:39.489Z,0.90
2019-05-12T16:34:57.155Z,0.97
2019-05-12T16:37:22.861Z,1.27
2019-05-12T16:39:47.527Z,1.00
2019-05-12T16:42:11.056Z,0.90
2019-05-12T16:44:34.921Z,1.10
2019-05-12T16:46:58.267Z,0.90
2019-05-12T16:49:25.110Z,1.00
2019-05-12T16:51:47.545Z,0.95
2019-05-12T16:54:10.992Z,1.15
2019-05-12T16:56:34.507Z,1.10
2019-05-12T16:58:57.909Z,0.90
2019-05-12T17:01:26.011Z,1.50
2019-05-12T17:03:46.604Z,0.82
2019-05-12T17:06:10.369Z,0.95
2019-05-12T17:08:34.536Z,1.00
2019-05-12T17:11:15.105Z,1.07
2019-05-12T17:13:23.799Z,0.95
2019-05-12T17:15:48.839Z,1.00
2019-05-12T17:18:13.564Z,0.98
2019-05-12T17:20:40.897Z,0.98
2019-05-12T17:23:03.512Z,1.22
2019-05-12T17:25:27.032Z,1.00
2019-05-12T17:27:50.502Z,0.98
2019-05-12T17:30:14.664Z,1.00
2019-05-12T17:32:38.121Z,1.42
2019-05-12T17:35:04.041Z,0.93
2019-05-12T17:37:31.328Z,1.40
2019-05-12T17:39:52.320Z,1.10
2019-05-12T17:42:21.403Z,1.27
2019-05-12T17:44:43.458Z,1.03
2019-05-12T17:47:06.402Z,1.10
2019-05-12T17:49:30.850Z,1.10
2019-05-12T17:51:57.179Z,1.10
2019-05-12T17:54:22.049Z,1.40
2019-05-12T17:56:45.211Z,1.30
2019-05-12T17:59:08.626Z,1.07
2019-05-12T18:01:35.409Z,1.30
2019-05-12T18:03:57.261Z,1.10
2019-05-12T18:06:26.808Z,1.20
2019-05-12T18:08:45.853Z,1.10
2019-05-12T18:11:11.401Z,1.53
2019-05-12T18:13:34.645Z,1.00
2019-05-12T18:15:58.099Z,1.40
2019-05-12T18:18:24.105Z,1.37
2019-05-12T18:20:47.056Z,1.10
2019-05-12T18:23:10.514Z,1.20
2019-05-12T18:25:36.686Z,1.10
2019-05-12T18:27:59.117Z,1.27
2019-05-12T18:30:23.765Z,1.13
2019-05-12T18:32:47.486Z,1.10
2019-05-12T18:35:13.452Z,1.20
2019-05-12T18:37:36.719Z,1.50
2019-05-12T18:40:00.166Z,1.50
2019-05-12T18:42:24.552Z,1.37
2019-05-12T18:44:48.344Z,1.57
2019-05-12T18:47:16.138Z,1.80
2019-05-12T18:49:36.919Z,1.50
2019-05-12T18:52:00.343Z,1.57
2019-05-12T18:54:24.416Z,1.53
2019-05-12T18:56:52.463Z,1.45
2019-05-12T18:59:16.233Z,1.57
2019-05-12T19:01:38.308Z,1.30
2019-05-12T19:04:03.712Z,1.60
2019-05-12T19:06:27.293Z,1.40
2019-05-12T19:08:50.713Z,1.50
2019-05-12T19:11:22.469Z,1.47
2019-05-12T19:13:44.592Z,1.37
2019-05-12T19:16:07.289Z,1.17
2019-05-12T19:18:33.333Z,1.33
2019-05-12T19:20:55.592Z,1.40
2019-05-12T19:23:19.049Z,1.70
2019-05-12T19:25:43.701Z,1.50
2019-05-12T19:28:10.575Z,1.40
2019-05-12T19:30:34.480Z,1.27
2019-05-12T19:32:59.956Z,1.10
2019-05-12T19:35:23.502Z,1.50
2019-05-12T19:37:47.119Z,1.47
2019-05-12T19:40:14.098Z,1.23
2019-05-12T19:42:36.672Z,1.20
2019-05-12T19:45:06.774Z,1.40
2019-05-12T19:47:33.534Z,1.20
2019-05-12T19:49:53.608Z,1.50
2019-05-12T19:52:17.312Z,1.27
2019-05-12T19:54:40.861Z,1.50
2019-05-12T19:57:04.277Z,2.00
2019-05-12T19:59:27.746Z,2.10
2019-05-12T20:01:53.581Z,1.87
2019-05-12T20:04:29.750Z,2.40
2019-05-12T20:06:43.983Z,2.30
2019-05-12T20:09:10.841Z,2.43
2019-05-12T20:11:32.643Z,2.00
2019-05-12T20:13:56.114Z,1.87
2019-05-12T20:16:22.022Z,1.57
2019-05-12T20:18:49.209Z,1.70
2019-05-12T20:21:09.962Z,1.40
2019-05-12T20:23:33.545Z,1.37
2019-05-12T20:25:56.913Z,1.75
2019-05-12T20:28:20.367Z,1.40
2019-05-12T20:30:44.206Z,1.50
2019-05-12T20:33:08.231Z,1.37
2019-05-12T20:35:33.777Z,1.60
2019-05-12T20:37:57.585Z,1.37
2019-05-12T20:40:23.728Z,1.90
2019-05-12T20:43:05.627Z,2.80
2019-05-12T20:45:13.590Z,2.00
2019-05-12T20:47:39.223Z,2.30
2019-05-12T20:50:04.279Z,2.40
2019-05-12T20:52:27.493Z,2.93
2019-05-12T20:54:55.359Z,2.33
2019-05-12T20:57:16.409Z,5.53
2019-05-12T20:59:39.824Z,5.53
2019-05-12T21:02:03.684Z,9.83
2019-05-12T21:04:31.880Z,5.57
2019-05-12T21:06:54.142Z,6.20
2019-05-12T21:09:17.516Z,3.80
2019-05-12T21:11:41.131Z,3.22
2019-05-12T21:14:09.981Z,3.00
2019-05-12T21:16:34.361Z,2.20
2019-05-12T21:19:05.630Z,2.10
2019-05-12T21:21:27.302Z,2.50
2019-05-12T21:23:53.567Z,2.73
2019-05-12T21:26:10.764Z,3.00
2019-05-12T21:28:37.049Z,2.30
2019-05-12T21:30:59.371Z,2.57
2019-05-12T21:33:24.026Z,2.70
2019-05-12T21:35:47.743Z,2.60
2019-05-12T21:38:13.320Z,2.30
2019-05-12T21:40:36.665Z,2.93
2019-05-12T21:43:00.134Z,2.97
2019-05-12T21:45:26.552Z,2.70
2019-05-12T21:47:48.733Z,2.50
2019-05-12T21:50:14.058Z,2.90
2019-05-12T21:52:39.347Z,2.00
2019-05-12T21:55:06.008Z,2.87
2019-05-12T21:57:31.060Z,1.90
2019-05-12T21:59:55.561Z,2.20
2019-05-12T22:02:19.664Z,2.20
2019-05-12T22:04:45.736Z,2.50
2019-05-12T22:07:08.953Z,1.90
2019-05-12T22:09:41.280Z,2.20
2019-05-12T22:11:57.858Z,1.70
2019-05-12T22:14:21.270Z,1.90
2019-05-12T22:16:46.965Z,2.03
2019-05-12T22:19:10.464Z,1.77
2019-05-12T22:21:35.749Z,1.80
2019-05-12T22:23:59.352Z,1.60
2019-05-12T22:26:23.141Z,1.77
2019-05-12T22:28:50.730Z,1.70
2019-05-12T22:31:13.707Z,1.83
2019-05-12T22:33:40.945Z,1.90
2019-05-12T22:36:14.049Z,1.67
2019-05-12T22:38:28.240Z,2.13
2019-05-12T22:40:56.074Z,2.03
2019-05-12T22:43:16.880Z,1.87
2019-05-12T22:45:44.529Z,2.23
2019-05-12T22:48:05.480Z,2.10
2019-05-12T22:50:33.009Z,2.20
2019-05-12T22:52:54.066Z,2.00
2019-05-12T22:55:21.152Z,1.87
2019-05-12T22:57:43.491Z,2.03
2019-05-12T23:00:13.514Z,2.07
2019-05-12T23:02:33.868Z,2.10
2019-05-12T23:04:57.289Z,2.20
2019-05-12T23:07:25.459Z,1.90
2019-05-12T23:09:45.917Z,2.87
2019-05-12T23:12:09.623Z,2.03
2019-05-12T23:14:34.511Z,1.83
2019-05-12T23:17:00.151Z,2.90
2019-05-12T23:19:23.522Z,2.60
2019-05-12T23:21:49.337Z,2.60
2019-05-12T23:24:14.173Z,2.50
2019-05-12T23:26:41.899Z,2.90
2019-05-12T23:29:04.232Z,2.60
2019-05-12T23:31:30.220Z,2.20
2019-05-12T23:33:54.397Z,2.50
2019-05-12T23:36:19.707Z,2.45
2019-05-12T23:38:44.054Z,2.60
2019-05-12T23:41:07.652Z,2.47
2019-05-12T23:43:31.104Z,2.30
2019-05-12T23:45:54.521Z,2.60
2019-05-12T23:48:17.975Z,2.53
2019-05-12T23:50:43.438Z,2.20
2019-05-12T23:53:06.917Z,2.50
2019-05-12T23:55:30.436Z,2.27
2019-05-12T23:57:53.844Z,2.20
